sensor_id;sensor_type;location;lat;lon;timestamp;P1;durP1;ratioP1;P2;durP2;ratioP2
53961;SDS011;39868;53.398;6.564;2023-04-24T00:02:06;3.47;;;1.80;;
53961;SDS011;39868;53.398;6.564;2023-04-24T00:04:37;2.20;;;1.77;;
53961;SDS011;39868;53.398;6.564;2023-04-24T00:07:07;3.22;;;1.98;;
53961;SDS011;39868;53.398;6.564;2023-04-24T00:09:35;2.60;;;1.80;;
53961;SDS011;39868;53.398;6.564;2023-04-24T00:12:02;3.60;;;2.10;;
53961;SDS011;39868;53.398;6.564;2023-04-24T00:14:31;2.22;;;1.75;;
53961;SDS011;39868;53.398;6.564;2023-04-24T00:16:58;3.45;;;2.10;;
53961;SDS011;39868;53.398;6.564;2023-04-24T00:19:26;2.00;;;1.55;;
53961;SDS011;39868;53.398;6.564;2023-04-24T00:21:53;2.05;;;1.80;;
53961;SDS011;39868;53.398;6.564;2023-04-24T00:24:20;1.90;;;1.60;;
53961;SDS011;39868;53.398;6.564;2023-04-24T00:26:48;2.22;;;1.85;;
53961;SDS011;39868;53.398;6.564;2023-04-24T00:29:15;2.22;;;1.75;;
53961;SDS011;39868;53.398;6.564;2023-04-24T00:31:42;2.67;;;1.98;;
53961;SDS011;39868;53.398;6.564;2023-04-24T00:34:10;3.67;;;2.15;;
53961;SDS011;39868;53.398;6.564;2023-04-24T00:36:38;3.70;;;2.10;;
53961;SDS011;39868;53.398;6.564;2023-04-24T00:39:05;3.70;;;1.90;;
53961;SDS011;39868;53.398;6.564;2023-04-24T00:41:35;2.63;;;1.95;;
53961;SDS011;39868;53.398;6.564;2023-04-24T00:44:02;2.47;;;2.17;;
53961;SDS011;39868;53.398;6.564;2023-04-24T00:46:30;2.35;;;2.03;;
53961;SDS011;39868;53.398;6.564;2023-04-24T00:48:58;3.30;;;2.50;;
53961;SDS011;39868;53.398;6.564;2023-04-24T00:51:26;2.83;;;2.17;;
53961;SDS011;39868;53.398;6.564;2023-04-24T00:53:54;2.85;;;2.40;;
53961;SDS011;39868;53.398;6.564;2023-04-24T00:56:21;3.13;;;2.33;;
53961;SDS011;39868;53.398;6.564;2023-04-24T00:58:50;2.97;;;2.28;;
53961;SDS011;39868;53.398;6.564;2023-04-24T01:01:18;2.35;;;2.05;;
53961;SDS011;39868;53.398;6.564;2023-04-24T01:03:49;3.63;;;2.58;;
53961;SDS011;39868;53.398;6.564;2023-04-24T01:06:18;4.72;;;2.50;;
53961;SDS011;39868;53.398;6.564;2023-04-24T01:08:47;4.32;;;2.65;;
53961;SDS011;39868;53.398;6.564;2023-04-24T01:11:15;4.40;;;2.40;;
53961;SDS011;39868;53.398;6.564;2023-04-24T01:13:44;2.90;;;2.53;;
53961;SDS011;39868;53.398;6.564;2023-04-24T01:16:12;2.90;;;2.42;;
53961;SDS011;39868;53.398;6.564;2023-04-24T01:18:41;2.35;;;2.13;;
53961;SDS011;39868;53.398;6.564;2023-04-24T01:21:10;3.22;;;2.50;;
53961;SDS011;39868;53.398;6.564;2023-04-24T01:23:40;2.42;;;2.10;;
53961;SDS011;39868;53.398;6.564;2023-04-24T01:26:07;2.35;;;2.03;;
53961;SDS011;39868;53.398;6.564;2023-04-24T01:28:35;2.53;;;2.00;;
53961;SDS011;39868;53.398;6.564;2023-04-24T01:31:04;2.20;;;2.00;;
53961;SDS011;39868;53.398;6.564;2023-04-24T01:33:32;2.17;;;1.98;;
53961;SDS011;39868;53.398;6.564;2023-04-24T01:35:59;2.70;;;1.88;;
53961;SDS011;39868;53.398;6.564;2023-04-24T01:38:27;2.13;;;1.90;;
53961;SDS011;39868;53.398;6.564;2023-04-24T01:40:54;2.35;;;1.80;;
53961;SDS011;39868;53.398;6.564;2023-04-24T01:43:23;1.65;;;1.50;;
53961;SDS011;39868;53.398;6.564;2023-04-24T01:45:51;1.55;;;1.42;;
53961;SDS011;39868;53.398;6.564;2023-04-24T01:48:18;1.60;;;1.38;;
53961;SDS011;39868;53.398;6.564;2023-04-24T01:50:46;1.50;;;1.40;;
53961;SDS011;39868;53.398;6.564;2023-04-24T01:53:13;1.35;;;1.25;;
53961;SDS011;39868;53.398;6.564;2023-04-24T01:55:41;1.27;;;1.17;;
53961;SDS011;39868;53.398;6.564;2023-04-24T01:58:11;1.83;;;1.35;;
53961;SDS011;39868;53.398;6.564;2023-04-24T02:00:39;2.92;;;1.58;;
53961;SDS011;39868;53.398;6.564;2023-04-24T02:03:07;2.97;;;1.33;;
53961;SDS011;39868;53.398;6.564;2023-04-24T02:05:35;1.27;;;1.10;;
53961;SDS011;39868;53.398;6.564;2023-04-24T02:08:02;0.98;;;0.98;;
53961;SDS011;39868;53.398;6.564;2023-04-24T02:10:29;1.50;;;1.10;;
53961;SDS011;39868;53.398;6.564;2023-04-24T02:12:57;1.35;;;1.02;;
53961;SDS011;39868;53.398;6.564;2023-04-24T02:15:26;1.00;;;0.90;;
53961;SDS011;39868;53.398;6.564;2023-04-24T02:17:53;1.27;;;1.17;;
53961;SDS011;39868;53.398;6.564;2023-04-24T02:20:20;1.25;;;1.10;;
53961;SDS011;39868;53.398;6.564;2023-04-24T02:22:48;1.58;;;1.17;;
53961;SDS011;39868;53.398;6.564;2023-04-24T02:25:17;2.10;;;1.20;;
53961;SDS011;39868;53.398;6.564;2023-04-24T02:27:45;1.00;;;0.90;;
53961;SDS011;39868;53.398;6.564;2023-04-24T02:30:12;2.28;;;1.25;;
53961;SDS011;39868;53.398;6.564;2023-04-24T02:32:41;1.38;;;1.15;;
53961;SDS011;39868;53.398;6.564;2023-04-24T02:35:09;1.23;;;1.13;;
53961;SDS011;39868;53.398;6.564;2023-04-24T02:37:37;2.40;;;1.20;;
53961;SDS011;39868;53.398;6.564;2023-04-24T02:40:04;1.27;;;1.13;;
53961;SDS011;39868;53.398;6.564;2023-04-24T02:42:32;1.67;;;1.10;;
53961;SDS011;39868;53.398;6.564;2023-04-24T02:44:59;1.35;;;1.10;;
53961;SDS011;39868;53.398;6.564;2023-04-24T02:47:27;1.25;;;1.08;;
53961;SDS011;39868;53.398;6.564;2023-04-24T02:49:54;1.40;;;1.25;;
53961;SDS011;39868;53.398;6.564;2023-04-24T02:52:21;1.38;;;1.10;;
53961;SDS011;39868;53.398;6.564;2023-04-24T02:54:49;1.30;;;1.20;;
53961;SDS011;39868;53.398;6.564;2023-04-24T02:57:16;1.40;;;1.13;;
53961;SDS011;39868;53.398;6.564;2023-04-24T02:59:43;1.20;;;1.10;;
53961;SDS011;39868;53.398;6.564;2023-04-24T03:02:11;1.20;;;1.10;;
53961;SDS011;39868;53.398;6.564;2023-04-24T03:04:38;1.95;;;1.30;;
53961;SDS011;39868;53.398;6.564;2023-04-24T03:07:06;1.35;;;1.13;;
53961;SDS011;39868;53.398;6.564;2023-04-24T03:09:34;1.63;;;1.10;;
53961;SDS011;39868;53.398;6.564;2023-04-24T03:12:01;1.23;;;1.13;;
53961;SDS011;39868;53.398;6.564;2023-04-24T03:14:29;1.48;;;1.33;;
53961;SDS011;39868;53.398;6.564;2023-04-24T03:16:57;2.00;;;1.45;;
53961;SDS011;39868;53.398;6.564;2023-04-24T03:19:25;1.92;;;1.30;;
53961;SDS011;39868;53.398;6.564;2023-04-24T03:22:01;1.98;;;1.25;;
53961;SDS011;39868;53.398;6.564;2023-04-24T03:24:30;2.08;;;1.42;;
53961;SDS011;39868;53.398;6.564;2023-04-24T03:26:58;2.13;;;1.45;;
53961;SDS011;39868;53.398;6.564;2023-04-24T03:29:42;3.58;;;1.85;;
53961;SDS011;39868;53.398;6.564;2023-04-24T03:32:10;2.15;;;1.58;;
53961;SDS011;39868;53.398;6.564;2023-04-24T03:34:38;2.22;;;1.77;;
53961;SDS011;39868;53.398;6.564;2023-04-24T03:37:07;3.03;;;1.95;;
53961;SDS011;39868;53.398;6.564;2023-04-24T03:39:39;2.55;;;1.63;;
53961;SDS011;39868;53.398;6.564;2023-04-24T03:42:07;2.83;;;1.70;;
53961;SDS011;39868;53.398;6.564;2023-04-24T03:44:45;2.83;;;1.92;;
53961;SDS011;39868;53.398;6.564;2023-04-24T03:47:12;4.10;;;1.95;;
53961;SDS011;39868;53.398;6.564;2023-04-24T03:49:40;3.60;;;2.10;;
53961;SDS011;39868;53.398;6.564;2023-04-24T03:52:09;3.13;;;2.03;;
53961;SDS011;39868;53.398;6.564;2023-04-24T03:54:37;3.28;;;2.10;;
53961;SDS011;39868;53.398;6.564;2023-04-24T03:57:05;2.83;;;2.08;;
53961;SDS011;39868;53.398;6.564;2023-04-24T03:59:35;3.40;;;2.58;;
53961;SDS011;39868;53.398;6.564;2023-04-24T04:02:12;3.85;;;2.40;;
53961;SDS011;39868;53.398;6.564;2023-04-24T04:04:39;3.60;;;2.45;;
53961;SDS011;39868;53.398;6.564;2023-04-24T04:07:07;4.32;;;2.70;;
53961;SDS011;39868;53.398;6.564;2023-04-24T04:09:35;4.68;;;2.38;;
53961;SDS011;39868;53.398;6.564;2023-04-24T04:12:02;5.38;;;2.55;;
53961;SDS011;39868;53.398;6.564;2023-04-24T04:14:31;3.70;;;2.58;;
53961;SDS011;39868;53.398;6.564;2023-04-24T04:16:58;3.22;;;2.55;;
53961;SDS011;39868;53.398;6.564;2023-04-24T04:19:26;3.08;;;2.05;;
53961;SDS011;39868;53.398;6.564;2023-04-24T04:21:54;3.42;;;2.33;;
53961;SDS011;39868;53.398;6.564;2023-04-24T04:24:35;3.65;;;2.40;;
53961;SDS011;39868;53.398;6.564;2023-04-24T04:27:05;4.25;;;2.58;;
53961;SDS011;39868;53.398;6.564;2023-04-24T04:29:40;3.88;;;2.65;;
53961;SDS011;39868;53.398;6.564;2023-04-24T04:32:10;4.55;;;2.72;;
53961;SDS011;39868;53.398;6.564;2023-04-24T04:34:38;3.33;;;2.40;;
53961;SDS011;39868;53.398;6.564;2023-04-24T04:37:09;4.18;;;2.90;;
53961;SDS011;39868;53.398;6.564;2023-04-24T04:39:46;3.78;;;2.55;;
53961;SDS011;39868;53.398;6.564;2023-04-24T04:42:18;5.27;;;2.87;;
53961;SDS011;39868;53.398;6.564;2023-04-24T04:44:46;5.50;;;2.83;;
53961;SDS011;39868;53.398;6.564;2023-04-24T04:47:21;5.50;;;2.85;;
53961;SDS011;39868;53.398;6.564;2023-04-24T04:52:24;8.98;;;3.30;;
53961;SDS011;39868;53.398;6.564;2023-04-24T04:55:04;3.55;;;2.28;;
53961;SDS011;39868;53.398;6.564;2023-04-24T04:57:52;4.10;;;2.58;;
53961;SDS011;39868;53.398;6.564;2023-04-24T05:00:21;3.53;;;2.45;;
53961;SDS011;39868;53.398;6.564;2023-04-24T05:02:52;3.38;;;1.80;;
53961;SDS011;39868;53.398;6.564;2023-04-24T05:05:21;1.65;;;1.05;;
53961;SDS011;39868;53.398;6.564;2023-04-24T05:07:49;1.50;;;1.10;;
53961;SDS011;39868;53.398;6.564;2023-04-24T05:10:17;1.63;;;1.08;;
53961;SDS011;39868;53.398;6.564;2023-04-24T05:12:44;4.40;;;2.05;;
53961;SDS011;39868;53.398;6.564;2023-04-24T05:15:12;4.18;;;2.10;;
53961;SDS011;39868;53.398;6.564;2023-04-24T05:17:39;4.10;;;2.20;;
53961;SDS011;39868;53.398;6.564;2023-04-24T05:20:08;5.80;;;2.72;;
53961;SDS011;39868;53.398;6.564;2023-04-24T05:22:37;5.13;;;2.40;;
53961;SDS011;39868;53.398;6.564;2023-04-24T05:25:04;4.32;;;1.85;;
53961;SDS011;39868;53.398;6.564;2023-04-24T05:27:43;3.92;;;1.85;;
53961;SDS011;39868;53.398;6.564;2023-04-24T05:30:14;3.40;;;2.13;;
53961;SDS011;39868;53.398;6.564;2023-04-24T05:32:42;4.28;;;2.55;;
53961;SDS011;39868;53.398;6.564;2023-04-24T05:35:09;4.68;;;2.25;;
53961;SDS011;39868;53.398;6.564;2023-04-24T05:37:36;3.85;;;2.30;;
53961;SDS011;39868;53.398;6.564;2023-04-24T05:40:04;3.60;;;2.10;;
53961;SDS011;39868;53.398;6.564;2023-04-24T05:42:32;3.08;;;1.52;;
53961;SDS011;39868;53.398;6.564;2023-04-24T05:44:59;1.55;;;1.30;;
53961;SDS011;39868;53.398;6.564;2023-04-24T05:47:27;2.47;;;1.50;;
53961;SDS011;39868;53.398;6.564;2023-04-24T05:49:54;3.33;;;1.70;;
53961;SDS011;39868;53.398;6.564;2023-04-24T05:52:22;2.53;;;1.52;;
53961;SDS011;39868;53.398;6.564;2023-04-24T05:54:49;4.22;;;1.70;;
53961;SDS011;39868;53.398;6.564;2023-04-24T05:57:21;2.47;;;1.57;;
53961;SDS011;39868;53.398;6.564;2023-04-24T05:59:52;3.30;;;1.60;;
53961;SDS011;39868;53.398;6.564;2023-04-24T06:02:21;2.83;;;1.75;;
53961;SDS011;39868;53.398;6.564;2023-04-24T06:04:50;3.40;;;1.95;;
53961;SDS011;39868;53.398;6.564;2023-04-24T06:07:18;3.35;;;1.55;;
53961;SDS011;39868;53.398;6.564;2023-04-24T06:09:46;5.43;;;2.30;;
53961;SDS011;39868;53.398;6.564;2023-04-24T06:12:14;5.13;;;2.05;;
53961;SDS011;39868;53.398;6.564;2023-04-24T06:15:03;2.05;;;1.40;;
53961;SDS011;39868;53.398;6.564;2023-04-24T06:17:47;2.17;;;1.38;;
53961;SDS011;39868;53.398;6.564;2023-04-24T06:20:16;2.58;;;1.30;;
53961;SDS011;39868;53.398;6.564;2023-04-24T06:22:44;2.92;;;1.63;;
53961;SDS011;39868;53.398;6.564;2023-04-24T06:25:11;2.53;;;1.70;;
53961;SDS011;39868;53.398;6.564;2023-04-24T06:27:38;3.78;;;1.75;;
53961;SDS011;39868;53.398;6.564;2023-04-24T06:30:07;1.92;;;1.30;;
53961;SDS011;39868;53.398;6.564;2023-04-24T06:32:35;3.70;;;1.10;;
53961;SDS011;39868;53.398;6.564;2023-04-24T06:35:03;2.50;;;1.20;;
53961;SDS011;39868;53.398;6.564;2023-04-24T06:37:31;1.92;;;1.15;;
53961;SDS011;39868;53.398;6.564;2023-04-24T06:39:58;1.05;;;0.95;;
53961;SDS011;39868;53.398;6.564;2023-04-24T06:42:26;1.80;;;1.15;;
53961;SDS011;39868;53.398;6.564;2023-04-24T06:44:54;2.83;;;1.40;;
53961;SDS011;39868;53.398;6.564;2023-04-24T06:47:22;1.30;;;1.00;;
53961;SDS011;39868;53.398;6.564;2023-04-24T06:49:49;1.20;;;0.90;;
53961;SDS011;39868;53.398;6.564;2023-04-24T06:52:19;0.95;;;0.80;;
53961;SDS011;39868;53.398;6.564;2023-04-24T06:54:46;1.52;;;0.95;;
53961;SDS011;39868;53.398;6.564;2023-04-24T06:57:15;5.03;;;1.10;;
53961;SDS011;39868;53.398;6.564;2023-04-24T06:59:43;0.98;;;0.77;;
53961;SDS011;39868;53.398;6.564;2023-04-24T07:02:10;0.68;;;0.68;;
53961;SDS011;39868;53.398;6.564;2023-04-24T07:04:38;1.58;;;1.00;;
53961;SDS011;39868;53.398;6.564;2023-04-24T07:07:05;3.72;;;1.27;;
53961;SDS011;39868;53.398;6.564;2023-04-24T07:09:33;1.17;;;0.95;;
53961;SDS011;39868;53.398;6.564;2023-04-24T07:12:01;1.50;;;1.10;;
53961;SDS011;39868;53.398;6.564;2023-04-24T07:14:29;0.95;;;0.80;;
53961;SDS011;39868;53.398;6.564;2023-04-24T07:16:57;0.98;;;0.70;;
53961;SDS011;39868;53.398;6.564;2023-04-24T07:19:24;2.03;;;0.90;;
53961;SDS011;39868;53.398;6.564;2023-04-24T07:21:51;0.93;;;0.80;;
53961;SDS011;39868;53.398;6.564;2023-04-24T07:24:20;2.28;;;0.90;;
53961;SDS011;39868;53.398;6.564;2023-04-24T07:26:50;2.33;;;1.10;;
53961;SDS011;39868;53.398;6.564;2023-04-24T07:29:18;1.52;;;1.20;;
53961;SDS011;39868;53.398;6.564;2023-04-24T07:31:46;4.35;;;1.25;;
53961;SDS011;39868;53.398;6.564;2023-04-24T07:34:13;1.67;;;1.25;;
53961;SDS011;39868;53.398;6.564;2023-04-24T07:36:41;2.25;;;1.52;;
53961;SDS011;39868;53.398;6.564;2023-04-24T07:39:08;3.05;;;1.67;;
53961;SDS011;39868;53.398;6.564;2023-04-24T07:41:36;2.53;;;1.48;;
53961;SDS011;39868;53.398;6.564;2023-04-24T07:44:03;1.80;;;1.60;;
53961;SDS011;39868;53.398;6.564;2023-04-24T07:46:30;3.28;;;1.85;;
53961;SDS011;39868;53.398;6.564;2023-04-24T07:48:58;4.93;;;2.22;;
53961;SDS011;39868;53.398;6.564;2023-04-24T07:51:39;6.60;;;2.50;;
53961;SDS011;39868;53.398;6.564;2023-04-24T07:54:06;5.68;;;2.58;;
53961;SDS011;39868;53.398;6.564;2023-04-24T07:56:34;4.68;;;2.20;;
53961;SDS011;39868;53.398;6.564;2023-04-24T07:59:05;5.18;;;2.70;;
53961;SDS011;39868;53.398;6.564;2023-04-24T08:01:33;4.80;;;2.88;;
53961;SDS011;39868;53.398;6.564;2023-04-24T08:04:00;8.32;;;3.67;;
53961;SDS011;39868;53.398;6.564;2023-04-24T08:06:28;8.98;;;5.20;;
53961;SDS011;39868;53.398;6.564;2023-04-24T08:08:57;9.70;;;5.10;;
53961;SDS011;39868;53.398;6.564;2023-04-24T08:11:25;11.20;;;5.70;;
53961;SDS011;39868;53.398;6.564;2023-04-24T08:13:53;13.05;;;5.18;;
53961;SDS011;39868;53.398;6.564;2023-04-24T08:16:21;8.50;;;4.45;;
53961;SDS011;39868;53.398;6.564;2023-04-24T08:18:51;8.63;;;4.60;;
53961;SDS011;39868;53.398;6.564;2023-04-24T08:21:19;16.05;;;6.20;;
53961;SDS011;39868;53.398;6.564;2023-04-24T08:23:47;10.07;;;5.68;;
53961;SDS011;39868;53.398;6.564;2023-04-24T08:26:14;16.88;;;6.30;;
53961;SDS011;39868;53.398;6.564;2023-04-24T08:28:42;17.00;;;5.82;;
53961;SDS011;39868;53.398;6.564;2023-04-24T08:31:09;12.48;;;5.63;;
53961;SDS011;39868;53.398;6.564;2023-04-24T08:33:37;10.13;;;5.03;;
53961;SDS011;39868;53.398;6.564;2023-04-24T08:36:04;10.45;;;5.30;;
53961;SDS011;39868;53.398;6.564;2023-04-24T08:38:33;9.73;;;4.82;;
53961;SDS011;39868;53.398;6.564;2023-04-24T08:41:00;10.15;;;5.10;;
53961;SDS011;39868;53.398;6.564;2023-04-24T08:43:28;11.02;;;5.40;;
53961;SDS011;39868;53.398;6.564;2023-04-24T08:45:56;10.75;;;5.72;;
53961;SDS011;39868;53.398;6.564;2023-04-24T08:48:25;13.23;;;5.97;;
53961;SDS011;39868;53.398;6.564;2023-04-24T08:50:58;11.30;;;5.57;;
53961;SDS011;39868;53.398;6.564;2023-04-24T08:53:26;9.18;;;4.90;;
53961;SDS011;39868;53.398;6.564;2023-04-24T08:55:54;12.05;;;6.28;;
53961;SDS011;39868;53.398;6.564;2023-04-24T08:58:22;15.90;;;6.13;;
53961;SDS011;39868;53.398;6.564;2023-04-24T09:00:56;10.77;;;5.65;;
53961;SDS011;39868;53.398;6.564;2023-04-24T09:03:25;10.98;;;6.20;;
53961;SDS011;39868;53.398;6.564;2023-04-24T09:05:55;9.95;;;5.55;;
53961;SDS011;39868;53.398;6.564;2023-04-24T09:08:24;9.07;;;4.95;;
53961;SDS011;39868;53.398;6.564;2023-04-24T09:10:52;6.32;;;4.57;;
53961;SDS011;39868;53.398;6.564;2023-04-24T09:13:20;10.32;;;4.35;;
53961;SDS011;39868;53.398;6.564;2023-04-24T09:15:47;9.85;;;4.57;;
53961;SDS011;39868;53.398;6.564;2023-04-24T09:18:15;8.20;;;4.15;;
53961;SDS011;39868;53.398;6.564;2023-04-24T09:20:59;6.22;;;4.15;;
53961;SDS011;39868;53.398;6.564;2023-04-24T09:23:31;6.97;;;4.18;;
53961;SDS011;39868;53.398;6.564;2023-04-24T09:26:00;9.68;;;4.28;;
53961;SDS011;39868;53.398;6.564;2023-04-24T09:28:32;9.75;;;4.72;;
53961;SDS011;39868;53.398;6.564;2023-04-24T09:34:01;6.55;;;4.65;;
53961;SDS011;39868;53.398;6.564;2023-04-24T09:36:37;8.07;;;4.47;;
53961;SDS011;39868;53.398;6.564;2023-04-24T09:39:11;5.85;;;4.10;;
53961;SDS011;39868;53.398;6.564;2023-04-24T09:44:24;10.35;;;4.38;;
53961;SDS011;39868;53.398;6.564;2023-04-24T09:46:56;8.27;;;4.03;;
53961;SDS011;39868;53.398;6.564;2023-04-24T09:49:25;7.25;;;3.47;;
53961;SDS011;39868;53.398;6.564;2023-04-24T09:54:31;7.10;;;3.90;;
53961;SDS011;39868;53.398;6.564;2023-04-24T09:56:59;7.75;;;3.75;;
53961;SDS011;39868;53.398;6.564;2023-04-24T09:59:27;7.10;;;3.25;;
53961;SDS011;39868;53.398;6.564;2023-04-24T10:01:54;6.28;;;2.92;;
53961;SDS011;39868;53.398;6.564;2023-04-24T10:04:24;6.18;;;3.17;;
53961;SDS011;39868;53.398;6.564;2023-04-24T10:06:55;5.43;;;3.10;;
53961;SDS011;39868;53.398;6.564;2023-04-24T10:09:24;5.10;;;3.13;;
53961;SDS011;39868;53.398;6.564;2023-04-24T10:11:53;8.50;;;3.10;;
53961;SDS011;39868;53.398;6.564;2023-04-24T10:14:22;9.02;;;3.17;;
53961;SDS011;39868;53.398;6.564;2023-04-24T10:16:52;6.13;;;2.90;;
53961;SDS011;39868;53.398;6.564;2023-04-24T10:19:21;4.60;;;3.10;;
53961;SDS011;39868;53.398;6.564;2023-04-24T10:21:52;4.65;;;2.90;;
53961;SDS011;39868;53.398;6.564;2023-04-24T10:24:21;3.70;;;2.67;;
53961;SDS011;39868;53.398;6.564;2023-04-24T10:29:21;4.05;;;2.70;;
53961;SDS011;39868;53.398;6.564;2023-04-24T10:31:48;4.40;;;2.40;;
53961;SDS011;39868;53.398;6.564;2023-04-24T10:34:16;7.47;;;2.88;;
53961;SDS011;39868;53.398;6.564;2023-04-24T10:36:47;10.32;;;2.55;;
53961;SDS011;39868;53.398;6.564;2023-04-24T10:39:22;6.03;;;2.38;;
53961;SDS011;39868;53.398;6.564;2023-04-24T10:41:53;5.40;;;2.42;;
53961;SDS011;39868;53.398;6.564;2023-04-24T10:44:24;6.28;;;2.65;;
53961;SDS011;39868;53.398;6.564;2023-04-24T10:46:55;5.05;;;2.25;;
53961;SDS011;39868;53.398;6.564;2023-04-24T10:49:29;4.97;;;2.53;;
53961;SDS011;39868;53.398;6.564;2023-04-24T10:52:01;4.70;;;2.45;;
53961;SDS011;39868;53.398;6.564;2023-04-24T10:54:35;4.80;;;2.42;;
53961;SDS011;39868;53.398;6.564;2023-04-24T10:59:50;7.68;;;2.35;;
53961;SDS011;39868;53.398;6.564;2023-04-24T11:02:36;5.53;;;2.45;;
53961;SDS011;39868;53.398;6.564;2023-04-24T11:05:06;3.45;;;2.40;;
53961;SDS011;39868;53.398;6.564;2023-04-24T11:10:46;5.10;;;2.20;;
53961;SDS011;39868;53.398;6.564;2023-04-24T11:16:13;1.90;;;1.80;;
53961;SDS011;39868;53.398;6.564;2023-04-24T11:18:42;5.60;;;1.98;;
53961;SDS011;39868;53.398;6.564;2023-04-24T11:21:17;4.55;;;1.90;;
53961;SDS011;39868;53.398;6.564;2023-04-24T11:23:45;3.50;;;2.00;;
53961;SDS011;39868;53.398;6.564;2023-04-24T11:26:17;2.70;;;2.08;;
53961;SDS011;39868;53.398;6.564;2023-04-24T11:28:47;4.60;;;1.85;;
53961;SDS011;39868;53.398;6.564;2023-04-24T11:34:08;5.13;;;2.22;;
53961;SDS011;39868;53.398;6.564;2023-04-24T11:36:37;5.22;;;1.92;;
53961;SDS011;39868;53.398;6.564;2023-04-24T11:39:05;2.65;;;1.95;;
53961;SDS011;39868;53.398;6.564;2023-04-24T11:41:33;6.05;;;2.13;;
53961;SDS011;39868;53.398;6.564;2023-04-24T11:44:02;5.38;;;2.10;;
53961;SDS011;39868;53.398;6.564;2023-04-24T11:46:30;4.28;;;1.83;;
53961;SDS011;39868;53.398;6.564;2023-04-24T11:48:59;3.38;;;2.00;;
53961;SDS011;39868;53.398;6.564;2023-04-24T11:51:27;3.35;;;1.60;;
53961;SDS011;39868;53.398;6.564;2023-04-24T11:54:02;4.32;;;1.40;;
53961;SDS011;39868;53.398;6.564;2023-04-24T11:56:34;2.85;;;1.70;;
53961;SDS011;39868;53.398;6.564;2023-04-24T11:59:03;3.53;;;1.40;;
53961;SDS011;39868;53.398;6.564;2023-04-24T12:01:42;3.45;;;1.55;;
53961;SDS011;39868;53.398;6.564;2023-04-24T12:04:12;3.33;;;2.03;;
53961;SDS011;39868;53.398;6.564;2023-04-24T12:06:40;2.08;;;1.70;;
53961;SDS011;39868;53.398;6.564;2023-04-24T12:09:26;4.40;;;1.98;;
53961;SDS011;39868;53.398;6.564;2023-04-24T12:11:54;5.30;;;1.50;;
53961;SDS011;39868;53.398;6.564;2023-04-24T12:14:24;4.50;;;1.70;;
53961;SDS011;39868;53.398;6.564;2023-04-24T12:16:52;1.90;;;1.30;;
53961;SDS011;39868;53.398;6.564;2023-04-24T12:19:22;3.15;;;1.65;;
53961;SDS011;39868;53.398;6.564;2023-04-24T12:22:00;4.10;;;1.60;;
53961;SDS011;39868;53.398;6.564;2023-04-24T12:24:28;3.03;;;1.40;;
53961;SDS011;39868;53.398;6.564;2023-04-24T12:26:57;3.85;;;1.55;;
53961;SDS011;39868;53.398;6.564;2023-04-24T12:29:25;2.83;;;1.83;;
53961;SDS011;39868;53.398;6.564;2023-04-24T12:31:53;2.95;;;1.30;;
53961;SDS011;39868;53.398;6.564;2023-04-24T12:34:22;3.65;;;1.45;;
53961;SDS011;39868;53.398;6.564;2023-04-24T12:36:51;2.75;;;1.38;;
53961;SDS011;39868;53.398;6.564;2023-04-24T12:39:19;2.83;;;1.40;;
53961;SDS011;39868;53.398;6.564;2023-04-24T12:41:56;4.22;;;1.30;;
53961;SDS011;39868;53.398;6.564;2023-04-24T12:44:33;2.42;;;1.30;;
53961;SDS011;39868;53.398;6.564;2023-04-24T12:47:02;1.75;;;1.20;;
53961;SDS011;39868;53.398;6.564;2023-04-24T12:49:30;1.20;;;1.08;;
53961;SDS011;39868;53.398;6.564;2023-04-24T12:51:57;1.30;;;1.20;;
53961;SDS011;39868;53.398;6.564;2023-04-24T12:54:25;2.45;;;1.35;;
53961;SDS011;39868;53.398;6.564;2023-04-24T12:56:52;1.70;;;1.20;;
53961;SDS011;39868;53.398;6.564;2023-04-24T12:59:19;1.85;;;1.50;;
53961;SDS011;39868;53.398;6.564;2023-04-24T13:01:47;1.70;;;1.20;;
53961;SDS011;39868;53.398;6.564;2023-04-24T13:04:14;2.70;;;1.33;;
53961;SDS011;39868;53.398;6.564;2023-04-24T13:06:43;2.85;;;1.35;;
53961;SDS011;39868;53.398;6.564;2023-04-24T13:09:10;2.08;;;1.30;;
53961;SDS011;39868;53.398;6.564;2023-04-24T13:11:38;3.38;;;1.48;;
53961;SDS011;39868;53.398;6.564;2023-04-24T13:14:05;4.65;;;1.33;;
53961;SDS011;39868;53.398;6.564;2023-04-24T13:16:32;1.35;;;1.20;;
53961;SDS011;39868;53.398;6.564;2023-04-24T13:19:01;3.17;;;1.20;;
53961;SDS011;39868;53.398;6.564;2023-04-24T13:21:29;2.35;;;1.20;;
53961;SDS011;39868;53.398;6.564;2023-04-24T13:23:57;2.05;;;1.30;;
53961;SDS011;39868;53.398;6.564;2023-04-24T13:26:24;3.92;;;1.50;;
53961;SDS011;39868;53.398;6.564;2023-04-24T13:28:51;1.50;;;1.25;;
53961;SDS011;39868;53.398;6.564;2023-04-24T13:31:19;1.63;;;1.10;;
53961;SDS011;39868;53.398;6.564;2023-04-24T13:33:46;2.85;;;1.17;;
53961;SDS011;39868;53.398;6.564;2023-04-24T13:36:13;3.20;;;1.20;;
53961;SDS011;39868;53.398;6.564;2023-04-24T13:38:41;2.35;;;1.25;;
53961;SDS011;39868;53.398;6.564;2023-04-24T13:41:08;5.30;;;1.40;;
53961;SDS011;39868;53.398;6.564;2023-04-24T13:43:36;1.88;;;1.10;;
53961;SDS011;39868;53.398;6.564;2023-04-24T13:46:03;1.23;;;1.10;;
53961;SDS011;39868;53.398;6.564;2023-04-24T13:48:31;1.27;;;1.17;;
53961;SDS011;39868;53.398;6.564;2023-04-24T13:50:58;1.50;;;1.00;;
53961;SDS011;39868;53.398;6.564;2023-04-24T13:53:25;1.35;;;1.08;;
53961;SDS011;39868;53.398;6.564;2023-04-24T13:55:52;1.92;;;1.50;;
53961;SDS011;39868;53.398;6.564;2023-04-24T13:58:20;3.00;;;1.48;;
53961;SDS011;39868;53.398;6.564;2023-04-24T14:00:47;4.40;;;1.45;;
53961;SDS011;39868;53.398;6.564;2023-04-24T14:03:14;2.35;;;1.40;;
53961;SDS011;39868;53.398;6.564;2023-04-24T14:05:42;2.40;;;1.38;;
53961;SDS011;39868;53.398;6.564;2023-04-24T14:08:09;2.28;;;1.70;;
53961;SDS011;39868;53.398;6.564;2023-04-24T14:10:37;2.80;;;1.60;;
53961;SDS011;39868;53.398;6.564;2023-04-24T14:13:04;2.92;;;1.33;;
53961;SDS011;39868;53.398;6.564;2023-04-24T14:15:32;2.65;;;1.55;;
53961;SDS011;39868;53.398;6.564;2023-04-24T14:17:59;2.20;;;1.52;;
53961;SDS011;39868;53.398;6.564;2023-04-24T14:20:28;3.08;;;1.70;;
53961;SDS011;39868;53.398;6.564;2023-04-24T14:22:56;2.83;;;1.75;;
53961;SDS011;39868;53.398;6.564;2023-04-24T14:25:25;1.80;;;1.70;;
53961;SDS011;39868;53.398;6.564;2023-04-24T14:27:53;3.15;;;1.70;;
53961;SDS011;39868;53.398;6.564;2023-04-24T14:30:20;3.08;;;1.50;;
53961;SDS011;39868;53.398;6.564;2023-04-24T14:32:48;4.18;;;2.35;;
53961;SDS011;39868;53.398;6.564;2023-04-24T14:35:16;2.70;;;1.70;;
53961;SDS011;39868;53.398;6.564;2023-04-24T14:37:43;4.35;;;1.90;;
53961;SDS011;39868;53.398;6.564;2023-04-24T14:40:11;4.97;;;1.65;;
53961;SDS011;39868;53.398;6.564;2023-04-24T14:42:58;2.40;;;1.65;;
53961;SDS011;39868;53.398;6.564;2023-04-24T14:45:26;2.30;;;1.85;;
53961;SDS011;39868;53.398;6.564;2023-04-24T14:47:54;5.38;;;2.25;;
53961;SDS011;39868;53.398;6.564;2023-04-24T14:50:22;2.85;;;2.00;;
53961;SDS011;39868;53.398;6.564;2023-04-24T14:52:50;2.33;;;1.73;;
53961;SDS011;39868;53.398;6.564;2023-04-24T14:55:17;4.30;;;1.73;;
53961;SDS011;39868;53.398;6.564;2023-04-24T14:57:45;6.38;;;2.55;;
53961;SDS011;39868;53.398;6.564;2023-04-24T15:00:12;3.50;;;1.88;;
53961;SDS011;39868;53.398;6.564;2023-04-24T15:02:40;4.32;;;2.33;;
53961;SDS011;39868;53.398;6.564;2023-04-24T15:05:11;3.33;;;1.88;;
53961;SDS011;39868;53.398;6.564;2023-04-24T15:07:38;4.75;;;2.28;;
53961;SDS011;39868;53.398;6.564;2023-04-24T15:10:08;7.32;;;2.05;;
53961;SDS011;39868;53.398;6.564;2023-04-24T15:12:36;3.80;;;2.00;;
53961;SDS011;39868;53.398;6.564;2023-04-24T15:15:04;3.55;;;2.20;;
53961;SDS011;39868;53.398;6.564;2023-04-24T15:17:31;3.25;;;2.00;;
53961;SDS011;39868;53.398;6.564;2023-04-24T15:19:59;3.42;;;1.88;;
53961;SDS011;39868;53.398;6.564;2023-04-24T15:22:27;3.13;;;2.10;;
53961;SDS011;39868;53.398;6.564;2023-04-24T15:24:54;4.15;;;2.25;;